Time;durP1;ratioP1;P1;durP2;ratioP2;P2;SDS_P1;SDS_P2;PMS_P1;PMS_P2;Temp;Humidity;BMP_temperature;BMP_pressure;BME280_temperature;BME280_humidity;BME280_pressure;Samples;Min_cycle;Max_cycle;Signal;HPM_P1;HPM_P2
2022/02/06 00:00:31;;;;;;;;;5.00;4.67;;;;;10.80;55.55;101697.34;2069737;28;47341;-58
2022/02/06 00:01:34;;;;;;;;;6.25;5.00;;;;;10.80;55.41;101686.72;2063119;28;48460;-58
2022/02/06 00:02:37;;;;;;;;;7.25;5.75;;;;;10.79;55.54;101688.47;2065449;28;47645;-57
2022/02/06 00:03:39;;;;;;;;;6.00;5.00;;;;;10.79;55.34;101683.16;2071758;28;47759;-56
2022/02/06 00:04:41;;;;;;;;;5.25;4.75;;;;;10.80;55.49;101679.66;2079844;28;47541;-56
2022/02/06 00:05:43;;;;;;;;;4.25;4.25;;;;;10.81;55.76;101680.53;2080558;28;47416;-56
2022/02/06 00:06:44;;;;;;;;;5.50;5.50;;;;;10.80;55.09;101681.44;2082348;28;47567;-56
2022/02/06 00:07:47;;;;;;;;;4.00;4.00;;;;;10.80;55.62;101674.34;2079423;28;48100;-57
2022/02/06 00:08:47;;;;;;;;;8.25;4.50;;;;;10.79;55.52;101672.53;2079727;28;47572;-57
2022/02/06 00:09:48;;;;;;;;;3.67;3.67;;;;;10.80;55.58;101678.78;2081417;28;48066;-58
2022/02/06 00:10:49;;;;;;;;;5.00;5.00;;;;;10.79;55.72;101666.34;2080645;28;47679;-56
2022/02/06 00:11:49;;;;;;;;;8.67;4.67;;;;;10.77;55.81;101678.75;2067615;28;47734;-58
2022/02/06 00:12:49;;;;;;;;;8.00;5.00;;;;;10.77;55.72;101679.66;2076270;28;47159;-56
2022/02/06 00:13:50;;;;;;;;;6.00;4.00;;;;;10.77;55.49;101657.53;2079109;28;47122;-55
2022/02/06 00:14:50;;;;;;;;;2.33;2.33;;;;;10.77;55.40;101660.19;2082161;28;47868;-57
2022/02/06 00:15:51;;;;;;;;;4.33;4.33;;;;;10.76;55.76;101646.03;2079944;28;47850;-57
2022/02/06 00:16:51;;;;;;;;;3.67;3.67;;;;;10.76;55.93;101654.00;2079605;28;47472;-57
2022/02/06 00:17:51;;;;;;;;;5.00;4.00;;;;;10.76;55.67;101656.66;2079896;28;46259;-56
2022/02/06 00:18:52;;;;;;;;;5.33;3.00;;;;;10.77;55.79;101652.22;2081638;28;47142;-57
2022/02/06 00:19:52;;;;;;;;;4.00;4.00;;;;;10.77;55.93;101630.97;2079682;28;47692;-56
2022/02/06 00:20:57;;;;;;;;;3.67;3.67;;;;;10.78;55.51;101641.59;2082036;28;48146;-55
2022/02/06 00:21:57;;;;;;;;;5.00;3.25;;;;;10.78;55.70;101641.59;2081645;28;48060;-56
2022/02/06 00:23:02;;;;;;;;;4.00;3.00;;;;;10.78;55.50;101651.31;2074735;28;47281;-58
2022/02/06 00:24:05;;;;;;;;;3.50;3.50;;;;;10.78;55.51;101638.03;2076636;28;47527;-57
2022/02/06 00:27:37;;;;;;;;;5.25;5.25;;;;;10.80;56.03;101645.13;2086900;28;48181;-58
2022/02/06 00:28:46;;;;;;;;;2.00;2.00;;;;;10.80;55.54;101637.16;2078275;28;49033;-58
2022/02/06 00:30:06;;;;;;;;;4.00;4.00;;;;;10.80;55.42;101641.59;2075971;28;47889;-57
2022/02/06 00:31:33;;;;;;;;;4.50;3.50;;;;;10.81;55.76;101640.69;2085718;28;47673;-57
2022/02/06 00:32:43;;;;;;;;;6.00;4.00;;;;;10.81;55.74;101638.03;2085969;28;47589;-57
2022/02/06 00:39:03;;;;;;;;;4.75;4.00;;;;;10.82;55.63;101642.47;2080300;28;47868;-57
2022/02/06 00:39:58;;;;;;;;;4.25;4.25;;;;;10.81;56.07;101633.63;2086964;28;47381;-58
2022/02/06 00:41:59;;;;;;;;;4.67;4.00;;;;;10.81;55.70;101627.44;2087202;28;47420;-58
2022/02/06 00:42:59;;;;;;;;;5.00;3.67;;;;;10.81;55.80;101623.00;2086861;28;47610;-57
2022/02/06 00:44:02;;;;;;;;;3.67;3.67;;;;;10.82;55.85;101618.56;2085958;28;48173;-57
2022/02/06 00:45:03;;;;;;;;;5.50;4.75;;;;;10.84;55.92;101617.66;2086889;28;48086;-59
2022/02/06 00:46:07;;;;;;;;;7.33;5.00;;;;;10.84;56.09;101616.78;2086687;28;47321;-57
2022/02/06 00:47:07;;;;;;;;;4.00;4.00;;;;;10.85;55.99;101607.91;2086795;28;47661;-56
2022/02/06 00:48:08;;;;;;;;;4.00;3.00;;;;;10.85;56.06;101611.44;2086947;28;47624;-57
2022/02/06 00:49:24;;;;;;;;;4.67;4.67;;;;;10.87;55.80;101612.31;2086959;28;48077;-56
2022/02/06 00:50:25;;;;;;;;;4.00;4.00;;;;;10.86;55.64;101607.88;2085255;28;48022;-56
2022/02/06 00:51:47;;;;;;;;;3.67;3.67;;;;;10.87;55.73;101619.38;2071858;28;47642;-56
2022/02/06 00:53:02;;;;;;;;;4.00;4.00;;;;;10.87;55.90;101608.78;2081228;28;47400;-58
2022/02/06 00:54:02;;;;;;;;;3.00;3.00;;;;;10.86;55.78;101601.69;2084847;28;47640;-59
2022/02/06 00:55:04;;;;;;;;;4.00;3.00;;;;;10.85;55.75;101607.91;2086657;28;47534;-56
2022/02/06 00:56:04;;;;;;;;;4.50;3.75;;;;;10.84;55.81;101604.38;2086740;28;48253;-54
2022/02/06 00:57:06;;;;;;;;;4.67;4.67;;;;;10.84;56.09;101607.03;2082537;28;47460;-59
2022/02/06 00:58:06;;;;;;;;;5.25;4.25;;;;;10.84;55.90;101615.00;2087118;28;47695;-54
2022/02/06 00:59:07;;;;;;;;;6.67;5.00;;;;;10.83;56.17;101607.03;2085952;28;47567;-58
2022/02/06 01:00:08;;;;;;;;;4.00;4.00;;;;;10.83;56.28;101615.88;2086677;28;47280;-55
2022/02/06 01:01:09;;;;;;;;;4.00;4.00;;;;;10.83;56.04;101620.31;2086862;28;47667;-56
2022/02/06 01:02:09;;;;;;;;;4.00;3.00;;;;;10.83;55.86;101617.66;2080682;28;47519;-56
2022/02/06 01:03:09;;;;;;;;;3.33;3.33;;;;;10.83;56.19;101628.28;2086928;28;47598;-57
2022/02/06 01:04:11;;;;;;;;;3.00;3.00;;;;;10.82;56.20;101619.44;2087144;28;47910;-58
2022/02/06 01:05:11;;;;;;;;;4.00;4.00;;;;;10.82;55.87;101616.78;2087281;28;48101;-58
2022/02/06 01:06:12;;;;;;;;;5.33;5.33;;;;;10.82;56.16;101605.28;2081695;28;47867;-58
2022/02/06 01:07:12;;;;;;;;;3.67;3.67;;;;;10.82;56.05;101610.59;2075446;28;47913;-54
2022/02/06 01:08:13;;;;;;;;;4.00;4.00;;;;;10.82;56.12;101608.81;2085864;28;47945;-57
2022/02/06 01:09:15;;;;;;;;;6.00;6.00;;;;;10.83;56.34;101617.66;2085003;28;46522;-56
2022/02/06 01:10:15;;;;;;;;;4.25;4.25;;;;;10.82;56.26;101611.47;2092798;28;47496;-57
2022/02/06 01:11:16;;;;;;;;;4.00;4.00;;;;;10.83;56.20;101617.66;2092215;28;47243;-58
2022/02/06 01:12:21;;;;;;;;;2.67;2.00;;;;;10.83;56.44;101618.53;2093789;28;47106;-59
2022/02/06 01:14:45;;;;;;;;;2.75;2.75;;;;;10.84;56.22;101614.13;2091496;28;47674;-56
2022/02/06 01:15:51;;;;;;;;;3.25;3.25;;;;;10.84;56.26;101628.28;2080579;28;47862;-55
2022/02/06 01:17:02;;;;;;;;;2.25;2.25;;;;;10.86;56.33;101617.63;2083799;28;47814;-57
2022/02/06 01:18:06;;;;;;;;;3.50;3.25;;;;;10.84;56.08;101612.34;2089524;28;47656;-56
2022/02/06 01:19:12;;;;;;;;;3.50;2.00;;;;;10.85;56.18;101621.19;2075330;28;47109;-57
2022/02/06 01:20:23;;;;;;;;;5.00;3.75;;;;;10.84;55.96;101606.16;2080247;28;47185;-57
2022/02/06 01:22:30;;;;;;;;;5.00;5.00;;;;;10.84;56.08;101620.31;2083459;28;47623;-58
2022/02/06 01:23:42;;;;;;;;;4.75;4.75;;;;;10.84;56.16;101609.69;2081419;28;48007;-56
2022/02/06 01:24:55;;;;;;;;;4.75;3.00;;;;;10.85;56.43;101611.44;2080230;28;47690;-57
2022/02/06 01:26:03;;;;;;;;;4.75;4.75;;;;;10.85;56.38;101611.44;2092989;28;47781;-57
2022/02/06 01:27:18;;;;;;;;;6.25;4.75;;;;;10.86;56.36;101610.53;2086428;28;48019;-58
2022/02/06 01:28:25;;;;;;;;;3.00;3.00;;;;;10.87;56.20;101609.66;2084615;28;47346;-57
2022/02/06 01:30:44;;;;;;;;;4.00;3.00;;;;;10.88;56.39;101613.19;2083788;28;47287;-57
2022/02/06 01:32:52;;;;;;;;;3.00;2.67;;;;;10.87;56.05;101598.16;2083559;28;47620;-57
2022/02/06 01:33:57;;;;;;;;;3.25;3.00;;;;;10.87;56.41;101596.38;2083987;28;47956;-58
2022/02/06 01:35:05;;;;;;;;;3.50;2.25;;;;;10.88;56.29;101594.59;2086215;28;48057;-57
2022/02/06 01:36:22;;;;;;;;;3.00;3.00;;;;;10.87;56.05;101599.03;2074216;28;47804;-58
2022/02/06 01:37:29;;;;;;;;;5.00;4.00;;;;;10.88;56.16;101597.25;2079441;28;48532;-55
2022/02/06 01:38:59;;;;;;;;;4.25;4.00;;;;;10.88;56.14;101600.78;2077154;28;48029;-58
2022/02/06 01:41:23;;;;;;;;;3.00;3.00;;;;;10.88;56.03;101597.25;2059919;28;47729;-57
2022/02/06 01:43:33;;;;;;;;;3.33;3.33;;;;;10.90;56.40;101603.44;2062107;28;47702;-57
2022/02/06 01:45:59;;;;;;;;;3.00;2.00;;;;;10.89;56.19;101591.94;2063147;28;47386;-54
2022/02/06 01:57:23;;;;;;;;;4.00;3.00;;;;;10.89;56.45;101602.53;2063084;28;47560;-56
2022/02/06 02:04:41;;;;;;;;;2.00;2.00;;;;;10.89;56.23;101548.56;2008663;29;47836;-57
2022/02/06 02:06:02;;;;;;;;;2.00;2.00;;;;;10.89;56.38;101530.84;2007673;29;46252;-55
2022/02/06 02:10:44;;;;;;;;;3.25;2.00;;;;;10.87;56.09;101522.03;2018656;29;48148;-57
2022/02/06 02:12:10;;;;;;;;;2.25;2.25;;;;;10.88;56.37;101521.13;2009429;29;45386;-57
2022/02/06 02:14:30;;;;;;;;;3.00;3.00;;;;;10.86;56.45;101525.56;2000728;29;47966;-55
2022/02/06 02:20:25;;;;;;;;;3.50;2.25;;;;;10.84;56.27;101524.72;2019438;29;47951;-58
2022/02/06 02:24:13;;;;;;;;;2.00;2.00;;;;;10.84;56.28;101521.19;2026955;28;47826;-58
2022/02/06 02:47:47;;;;;;;;;5.00;3.00;;;;;10.93;56.11;101499.84;2065344;28;47767;-58
2022/02/06 02:48:47;;;;;;;;;4.00;4.00;;;;;10.94;55.92;101516.66;2063470;28;48291;-56
2022/02/06 02:50:58;;;;;;;;;1.75;1.75;;;;;10.95;56.02;101518.41;2066713;28;47941;-58
2022/02/06 02:52:05;;;;;;;;;3.00;1.75;;;;;10.96;56.16;101514.88;2062274;28;47938;-55
2022/02/06 02:53:18;;;;;;;;;2.25;2.25;;;;;10.95;56.26;101516.66;2056024;28;47537;-55
2022/02/06 02:54:25;;;;;;;;;3.50;2.75;;;;;10.95;56.06;101510.47;2060055;28;47759;-57
2022/02/06 02:57:41;;;;;;;;;1.50;1.50;;;;;10.96;56.27;101501.59;2056561;28;47749;-58
2022/02/06 02:58:49;;;;;;;;;4.00;3.00;;;;;10.95;56.32;101492.75;2061628;28;48099;-56
2022/02/06 03:00:08;;;;;;;;;3.50;2.50;;;;;10.95;56.55;101487.44;2066484;28;48613;-57
2022/02/06 03:01:20;;;;;;;;;3.25;3.25;;;;;10.94;56.38;101474.16;2063050;28;48105;-55
2022/02/06 03:02:20;;;;;;;;;3.00;2.00;;;;;10.94;56.55;101471.53;2060829;28;47723;-57
2022/02/06 03:03:42;;;;;;;;;3.33;3.33;;;;;10.93;56.40;101467.09;2063284;28;47709;-56
2022/02/06 03:04:44;;;;;;;;;1.75;1.75;;;;;10.92;56.70;101468.84;2058159;28;47217;-55
2022/02/06 03:05:47;;;;;;;;;2.00;2.00;;;;;10.91;56.55;101467.97;2066198;28;47254;-54
2022/02/06 03:06:48;;;;;;;;;3.00;3.00;;;;;10.93;56.49;101472.41;2063857;28;47746;-56
2022/02/06 03:07:49;;;;;;;;;3.00;3.00;;;;;10.91;56.82;101456.47;2062910;28;47926;-55
2022/02/06 03:08:51;;;;;;;;;2.00;2.00;;;;;10.92;56.57;101458.22;2062848;28;47306;-54
2022/02/06 03:09:52;;;;;;;;;2.00;2.00;;;;;10.92;56.98;101458.22;2068644;28;47813;-55
2022/02/06 03:10:55;;;;;;;;;3.67;3.67;;;;;10.90;56.94;101452.06;2064250;28;48120;-57
2022/02/06 03:11:56;;;;;;;;;2.50;2.50;;;;;10.91;56.93;101469.75;2068092;28;47526;-59
2022/02/06 03:12:57;;;;;;;;;2.67;2.67;;;;;10.90;57.03;101447.63;2059170;28;47367;-56
2022/02/06 03:15:07;;;;;;;;;2.00;2.00;;;;;10.90;57.01;101449.41;2064264;28;47247;-57
2022/02/06 03:17:11;;;;;;;;;2.00;2.00;;;;;10.88;57.03;101448.53;2071195;28;48345;-55
2022/02/06 03:18:18;;;;;;;;;3.50;2.00;;;;;10.88;56.99;101444.13;2069649;28;47950;-63
2022/02/06 03:19:20;;;;;;;;;2.25;1.50;;;;;10.88;57.04;101446.78;2064716;28;47983;-56
2022/02/06 03:20:21;;;;;;;;;1.75;1.75;;;;;10.89;57.13;101439.69;2057437;28;47757;-58
2022/02/06 03:21:25;;;;;;;;;2.00;2.00;;;;;10.90;57.17;101437.00;2059932;28;47364;-57
2022/02/06 03:22:34;;;;;;;;;2.25;2.00;;;;;10.90;57.21;101428.16;2068349;28;47694;-58
2022/02/06 03:23:39;;;;;;;;;1.25;1.25;;;;;10.89;57.42;101423.75;2064757;28;48108;-57
2022/02/06 03:24:43;;;;;;;;;2.00;2.00;;;;;10.89;57.38;101429.06;2062014;28;47294;-54
2022/02/06 03:25:51;;;;;;;;;4.25;3.00;;;;;10.90;57.19;101425.50;2085056;28;47464;-55
2022/02/06 03:26:55;;;;;;;;;2.00;2.00;;;;;10.89;57.42;101423.75;2080127;28;47179;-57
2022/02/06 03:27:56;;;;;;;;;2.75;2.75;;;;;10.90;57.25;101433.47;2079864;28;47776;-56
2022/02/06 03:28:57;;;;;;;;;2.75;2.00;;;;;10.89;57.23;101427.28;2080269;28;47709;-56
2022/02/06 03:29:57;;;;;;;;;5.00;3.67;;;;;10.88;57.63;101419.34;2077847;28;47592;-54
2022/02/06 03:30:58;;;;;;;;;3.00;3.00;;;;;10.89;57.51;101429.06;2067391;28;47196;-58
2022/02/06 03:31:58;;;;;;;;;2.33;2.33;;;;;10.89;57.44;101426.41;2064700;28;47173;-57
2022/02/06 03:32:58;;;;;;;;;2.00;2.00;;;;;10.88;57.53;101420.22;2069877;28;48017;-57
2022/02/06 03:33:59;;;;;;;;;3.00;3.00;;;;;10.89;57.45;101426.41;2074724;28;47404;-55
2022/02/06 03:35:00;;;;;;;;;3.00;3.00;;;;;10.88;57.58;101425.53;2080211;28;47683;-57
2022/02/06 03:36:00;;;;;;;;;2.67;2.67;;;;;10.90;57.89;101421.06;2079772;28;47322;-59
2022/02/06 03:37:00;;;;;;;;;4.67;4.33;;;;;10.90;57.80;101412.22;2080079;28;47460;-56
2022/02/06 03:38:01;;;;;;;;;1.67;1.67;;;;;10.90;57.98;101429.03;2079638;28;48094;-55
2022/02/06 03:39:04;;;;;;;;;1.33;1.33;;;;;10.90;57.64;101436.13;2080186;28;47808;-57
2022/02/06 03:40:07;;;;;;;;;3.00;2.25;;;;;10.91;57.77;101433.44;2079851;28;47403;-56
2022/02/06 03:41:11;;;;;;;;;2.25;2.25;;;;;10.91;57.94;101433.44;2080097;28;48234;-55
2022/02/06 03:42:15;;;;;;;;;2.75;2.75;;;;;10.91;57.93;101435.22;2080088;28;47914;-56
2022/02/06 03:43:19;;;;;;;;;3.00;3.00;;;;;10.91;57.99;101427.25;2079960;28;46762;-57
2022/02/06 03:45:22;;;;;;;;;2.25;2.25;;;;;10.90;58.00;101434.34;2079980;28;48062;-55
2022/02/06 03:47:34;;;;;;;;;3.00;3.00;;;;;10.92;58.27;101434.31;2080136;28;48321;-58
2022/02/06 03:48:48;;;;;;;;;2.00;2.00;;;;;10.93;58.33;101416.66;2079907;28;48010;-57
2022/02/06 03:50:52;;;;;;;;;1.67;1.67;;;;;10.93;58.35;101436.13;2084632;28;48159;-58
2022/02/06 03:51:52;;;;;;;;;2.50;2.00;;;;;10.92;58.26;101413.09;2082376;28;47585;-60
2022/02/06 03:52:53;;;;;;;;;2.33;2.00;;;;;10.92;58.32;101421.06;2074048;28;47970;-57
2022/02/06 03:53:53;;;;;;;;;2.67;2.00;;;;;10.91;58.67;101413.97;2080034;28;47583;-55
2022/02/06 03:54:54;;;;;;;;;3.00;2.00;;;;;10.90;58.54;101413.09;2080131;28;47453;-56
2022/02/06 03:55:57;;;;;;;;;3.00;3.00;;;;;10.89;58.43;101402.50;2080127;28;47733;-56
2022/02/06 03:56:59;;;;;;;;;3.75;2.00;;;;;10.88;58.53;101393.66;2079664;28;48043;-58
2022/02/06 03:57:59;;;;;;;;;2.50;2.50;;;;;10.88;58.63;101390.13;2075715;28;48146;-56
2022/02/06 03:59:01;;;;;;;;;2.33;2.33;;;;;10.88;58.74;101411.38;2069001;28;48146;-57
2022/02/06 04:00:03;;;;;;;;;3.75;2.50;;;;;10.88;58.51;101406.94;2079930;28;46209;-56
2022/02/06 04:01:04;;;;;;;;;2.75;2.75;;;;;10.89;58.56;101400.72;2078918;28;48207;-55
2022/02/06 04:02:05;;;;;;;;;3.00;3.00;;;;;10.88;58.63;101396.31;2071974;28;47238;-56
2022/02/06 04:03:06;;;;;;;;;2.50;2.50;;;;;10.88;59.04;101393.66;2079270;28;48070;-56
2022/02/06 04:04:06;;;;;;;;;2.00;2.00;;;;;10.90;58.45;101406.91;2084171;28;47649;-57
2022/02/06 04:05:07;;;;;;;;;6.00;3.00;;;;;10.90;58.88;101390.97;2079820;28;47721;-57
2022/02/06 04:06:08;;;;;;;;;2.50;2.50;;;;;10.91;58.73;101390.09;2076153;28;47978;-57
2022/02/06 04:07:12;;;;;;;;;3.67;2.33;;;;;10.88;58.63;101388.34;2079192;28;47457;-60
2022/02/06 04:08:16;;;;;;;;;1.00;1.00;;;;;10.88;58.81;101396.31;2079161;28;47217;-57
2022/02/06 04:09:21;;;;;;;;;3.50;2.00;;;;;10.88;58.73;101398.97;2079784;28;47961;-56
2022/02/06 04:10:21;;;;;;;;;3.00;2.00;;;;;10.88;58.80;101396.31;2082728;28;47606;-58
2022/02/06 04:11:33;;;;;;;;;4.00;3.00;;;;;10.88;58.62;101412.25;2082649;28;47385;-57
2022/02/06 04:12:37;;;;;;;;;3.00;3.00;;;;;10.87;58.76;101402.53;2080575;28;48210;-58
2022/02/06 04:13:51;;;;;;;;;2.00;2.00;;;;;10.88;58.82;101392.78;2084057;28;47893;-58
2022/02/06 04:15:03;;;;;;;;;2.75;2.75;;;;;10.87;59.01;101389.25;2079632;28;48055;-57
2022/02/06 04:16:05;;;;;;;;;2.00;2.00;;;;;10.87;58.63;101405.19;2070877;28;47851;-57
2022/02/06 04:17:18;;;;;;;;;3.00;2.00;;;;;10.87;59.00;101405.19;2071077;28;48286;-57
2022/02/06 04:18:28;;;;;;;;;4.00;4.00;;;;;10.87;58.74;101388.38;2079656;28;47148;-57
2022/02/06 04:19:28;;;;;;;;;3.00;2.75;;;;;10.87;58.98;101393.69;2079509;28;47542;-57
2022/02/06 04:20:28;;;;;;;;;3.67;3.67;;;;;10.87;58.82;101393.69;2079738;28;47772;-55
2022/02/06 04:21:29;;;;;;;;;3.00;2.33;;;;;10.88;58.98;101393.66;2079603;28;47648;-58
2022/02/06 04:22:29;;;;;;;;;2.33;1.67;;;;;10.88;58.97;101401.63;2079903;28;47425;-58
2022/02/06 04:23:30;;;;;;;;;2.00;2.00;;;;;10.88;59.02;101390.13;2079496;28;47472;-56
2022/02/06 04:24:31;;;;;;;;;4.50;2.50;;;;;10.90;58.75;101380.38;2070947;28;48016;-56
2022/02/06 04:25:32;;;;;;;;;2.33;2.33;;;;;10.88;58.89;101376.84;2071081;28;48393;-56
2022/02/06 04:26:32;;;;;;;;;2.67;2.67;;;;;10.89;58.84;101368.00;2079502;28;47840;-57
2022/02/06 04:27:33;;;;;;;;;2.67;2.67;;;;;10.89;59.14;101375.94;2079918;28;47629;-57
2022/02/06 04:28:34;;;;;;;;;0.00;0.00;;;;;10.89;59.22;101368.00;2079751;28;47576;-57
2022/02/06 04:29:35;;;;;;;;;2.00;2.00;;;;;10.88;58.83;101372.41;2073892;28;48197;-53
2022/02/06 04:30:35;;;;;;;;;4.00;2.33;;;;;10.89;58.91;101375.94;2079665;28;47392;-58
2022/02/06 04:31:38;;;;;;;;;2.00;2.00;;;;;10.89;59.29;101344.09;2079636;28;47520;-59
2022/02/06 04:32:38;;;;;;;;;2.75;2.00;;;;;10.89;59.39;101347.63;2079581;28;48095;-60
2022/02/06 04:33:39;;;;;;;;;3.00;2.00;;;;;10.88;59.11;101348.53;2077794;28;47645;-58
2022/02/06 04:34:39;;;;;;;;;3.33;3.00;;;;;10.88;59.20;101335.25;2075626;28;47286;-55
2022/02/06 04:35:40;;;;;;;;;2.67;2.67;;;;;10.88;59.45;101340.56;2082544;28;47797;-57
2022/02/06 04:36:53;;;;;;;;;3.00;2.00;;;;;10.88;59.00;101329.06;2072593;28;48042;-57
2022/02/06 04:42:59;;;;;;;;;4.33;3.33;;;;;10.88;59.54;101324.63;2045893;28;47792;-58
2022/02/06 04:44:15;;;;;;;;;1.75;1.75;;;;;10.87;59.42;101312.25;2045788;28;47714;-57
2022/02/06 04:49:23;;;;;;;;;2.50;2.50;;;;;10.87;59.58;101293.66;2061718;28;47405;-57
2022/02/06 05:15:05;;;;;;;;;1.50;1.50;;;;;10.77;60.10;101280.53;2048179;28;47208;-55
2022/02/06 05:16:22;;;;;;;;;3.75;2.00;;;;;10.76;60.09;101284.97;2053874;28;48142;-55
2022/02/06 05:28:20;;;;;;;;;2.75;2.50;;;;;10.72;60.13;101248.75;2042697;28;47894;-55
2022/02/06 05:29:39;;;;;;;;;3.25;3.00;;;;;10.73;60.47;101253.16;2047931;28;47978;-57
2022/02/06 05:30:53;;;;;;;;;2.25;2.25;;;;;10.73;60.86;101263.78;2042379;28;48390;-57
2022/02/06 05:32:01;;;;;;;;;3.50;2.75;;;;;10.72;60.42;101235.47;2039503;28;47730;-56
2022/02/06 05:33:02;;;;;;;;;4.00;4.00;;;;;10.72;60.49;101242.56;2050817;28;47609;-58
2022/02/06 05:34:03;;;;;;;;;2.00;2.00;;;;;10.72;60.37;101255.84;2048175;28;47213;-57
2022/02/06 05:35:06;;;;;;;;;3.00;3.00;;;;;10.73;60.70;101241.66;2040626;28;46610;-55
2022/02/06 05:36:10;;;;;;;;;2.25;2.25;;;;;10.71;60.58;101233.72;2045505;28;46922;-55
2022/02/06 05:37:11;;;;;;;;;3.75;3.75;;;;;10.71;60.41;101235.50;2048492;28;47649;-56
2022/02/06 05:38:11;;;;;;;;;4.00;2.00;;;;;10.71;60.46;101236.38;2053084;28;47640;-57
2022/02/06 05:39:12;;;;;;;;;2.00;2.00;;;;;10.70;60.34;101231.97;2048469;28;47894;-54
2022/02/06 05:40:12;;;;;;;;;2.33;2.00;;;;;10.72;60.61;101234.59;2053718;28;47282;-56
2022/02/06 05:41:13;;;;;;;;;2.33;2.33;;;;;10.73;60.50;101244.31;2047651;28;47836;-55
2022/02/06 05:42:13;;;;;;;;;3.67;3.00;;;;;10.73;60.71;101254.94;2052064;28;47546;-57
2022/02/06 05:43:13;;;;;;;;;1.67;1.67;;;;;10.72;60.74;101254.06;2052065;28;47357;-56
2022/02/06 05:44:14;;;;;;;;;4.33;3.33;;;;;10.73;60.50;101246.97;2049766;28;46942;-58
2022/02/06 05:45:18;;;;;;;;;3.00;3.00;;;;;10.72;60.72;101246.09;2048526;28;46341;-58
2022/02/06 05:46:19;;;;;;;;;3.00;3.00;;;;;10.72;60.44;101247.88;2039042;28;48272;-58
2022/02/06 05:47:19;;;;;;;;;3.00;3.00;;;;;10.72;60.85;101232.81;2053437;28;47165;-56
2022/02/06 05:48:20;;;;;;;;;4.00;3.67;;;;;10.72;60.66;101240.78;2050071;28;47169;-55
2022/02/06 05:49:20;;;;;;;;;3.00;3.00;;;;;10.72;60.71;101238.13;2052335;28;47467;-56
2022/02/06 05:50:23;;;;;;;;;2.67;2.67;;;;;10.73;60.57;101239.88;2048428;28;47611;-56
2022/02/06 05:51:23;;;;;;;;;3.00;3.00;;;;;10.75;60.63;101246.03;2051006;28;48387;-58
2022/02/06 05:52:24;;;;;;;;;2.00;2.00;;;;;10.74;60.60;101240.75;2050311;28;48091;-56
2022/02/06 05:53:24;;;;;;;;;2.00;2.00;;;;;10.74;60.25;101232.78;2041338;28;47926;-55
2022/02/06 05:54:25;;;;;;;;;5.00;3.33;;;;;10.75;60.64;101238.06;2051341;28;47640;-56
2022/02/06 05:55:25;;;;;;;;;3.00;3.00;;;;;10.75;60.76;101224.81;2045635;28;47997;-54
2022/02/06 05:56:26;;;;;;;;;5.00;5.00;;;;;10.76;60.75;101215.06;2049739;28;47420;-56
2022/02/06 05:57:26;;;;;;;;;2.67;2.00;;;;;10.77;60.26;101232.75;2055544;28;47337;-52
2022/02/06 05:58:27;;;;;;;;;3.33;3.33;;;;;10.78;60.74;101239.81;2060922;28;47457;-59
2022/02/06 05:59:27;;;;;;;;;3.67;3.00;;;;;10.78;60.66;101226.53;2066315;28;47162;-56
2022/02/06 06:00:28;;;;;;;;;2.33;2.33;;;;;10.77;60.67;101244.22;2061694;28;47464;-57
2022/02/06 06:01:28;;;;;;;;;3.00;3.00;;;;;10.78;60.24;101239.81;2050488;28;47478;-58
2022/02/06 06:02:29;;;;;;;;;2.33;2.00;;;;;10.78;60.77;101240.69;2045678;28;47700;-55
2022/02/06 06:03:29;;;;;;;;;2.67;2.67;;;;;10.78;60.90;101239.81;2056062;28;47966;-55
2022/02/06 06:04:30;;;;;;;;;4.00;2.67;;;;;10.78;60.45;101237.16;2061099;28;47975;-58
2022/02/06 06:05:30;;;;;;;;;2.00;2.00;;;;;10.77;60.72;101217.69;2059171;28;47225;-59
2022/02/06 06:06:31;;;;;;;;;3.00;1.67;;;;;10.77;60.63;101220.34;2065450;28;47910;-60
2022/02/06 06:07:32;;;;;;;;;2.00;2.00;;;;;10.78;60.87;101229.19;2079074;28;47793;-57
2022/02/06 06:08:32;;;;;;;;;3.67;3.00;;;;;10.78;60.97;101207.94;2079200;28;47375;-57
2022/02/06 06:09:33;;;;;;;;;2.00;2.00;;;;;10.77;60.66;101209.72;2084380;28;47718;-56
2022/02/06 06:10:33;;;;;;;;;2.33;2.33;;;;;10.79;60.91;101212.34;2079416;28;47394;-55
2022/02/06 06:11:34;;;;;;;;;2.67;2.67;;;;;10.79;60.82;101215.88;2080866;28;47533;-55
2022/02/06 06:12:34;;;;;;;;;3.00;2.00;;;;;10.79;60.94;101217.66;2078356;28;47976;-57
2022/02/06 06:13:35;;;;;;;;;2.67;2.67;;;;;10.79;61.07;101215.00;2087472;28;47536;-57
2022/02/06 06:14:35;;;;;;;;;2.00;1.00;;;;;10.78;60.89;101214.13;2082972;28;46971;-55
2022/02/06 06:15:36;;;;;;;;;2.67;2.00;;;;;10.78;60.97;101206.16;2079600;28;46856;-55
2022/02/06 06:16:36;;;;;;;;;2.33;2.33;;;;;10.79;60.90;101201.72;2071093;28;47745;-56
2022/02/06 06:17:39;;;;;;;;;4.00;2.00;;;;;10.78;61.22;101207.94;2079286;28;47733;-57
2022/02/06 06:18:39;;;;;;;;;2.00;1.50;;;;;10.77;60.73;101212.38;2079361;28;47987;-58
2022/02/06 06:19:44;;;;;;;;;3.67;2.00;;;;;10.78;61.02;101210.59;2081336;28;47174;-58
2022/02/06 06:20:46;;;;;;;;;3.75;2.75;;;;;10.77;61.39;101211.50;2079209;28;47655;-56
2022/02/06 06:21:48;;;;;;;;;3.00;1.50;;;;;10.77;61.17;101203.53;2080546;28;47205;-56
2022/02/06 06:22:52;;;;;;;;;1.75;1.75;;;;;10.77;61.12;101195.56;2081598;28;47260;-56
2022/02/06 06:23:54;;;;;;;;;3.50;2.00;;;;;10.77;60.90;101196.44;2072009;28;47959;-56
2022/02/06 06:24:57;;;;;;;;;2.00;2.00;;;;;10.79;61.17;101188.47;2078971;28;47446;-57
2022/02/06 06:25:57;;;;;;;;;0.75;0.75;;;;;10.78;60.90;101189.38;2074096;28;47999;-55
2022/02/06 06:26:58;;;;;;;;;4.00;3.00;;;;;10.79;61.16;101189.34;2081110;28;47377;-58
2022/02/06 06:27:58;;;;;;;;;2.33;2.00;;;;;10.78;61.38;101190.25;2078941;28;48700;-56
2022/02/06 06:28:59;;;;;;;;;4.00;2.00;;;;;10.79;61.37;101183.16;2079108;28;47879;-58
2022/02/06 06:29:59;;;;;;;;;2.00;2.00;;;;;10.77;61.57;101183.19;2076255;28;47848;-52
2022/02/06 06:31:00;;;;;;;;;2.00;1.00;;;;;10.79;61.45;101199.94;2079512;28;47566;-56
2022/02/06 06:32:00;;;;;;;;;3.00;3.00;;;;;10.77;61.33;101175.22;2078770;28;47729;-57
2022/02/06 06:33:05;;;;;;;;;2.33;2.33;;;;;10.78;61.61;101168.13;2079526;28;48067;-58
2022/02/06 06:34:06;;;;;;;;;1.25;1.25;;;;;10.77;61.74;101190.25;2083103;28;48109;-57
2022/02/06 06:35:07;;;;;;;;;1.67;1.67;;;;;10.75;61.20;101169.06;2080638;28;47371;-56
2022/02/06 06:36:07;;;;;;;;;3.00;2.00;;;;;10.76;61.68;101185.84;2080539;28;47379;-57
2022/02/06 06:37:08;;;;;;;;;3.00;3.00;;;;;10.74;61.83;101174.38;2079950;28;47539;-57
2022/02/06 06:38:08;;;;;;;;;1.00;1.00;;;;;10.74;61.65;101183.22;2079979;28;48235;-55
2022/02/06 06:39:09;;;;;;;;;2.67;2.67;;;;;10.74;61.67;101196.50;2080571;28;47633;-57
2022/02/06 06:40:10;;;;;;;;;2.50;2.50;;;;;10.76;61.66;101192.03;2080481;28;47401;-57
2022/02/06 06:41:11;;;;;;;;;2.75;2.75;;;;;10.74;61.55;101182.34;2080401;28;47408;-55
2022/02/06 06:42:14;;;;;;;;;2.00;2.00;;;;;10.75;61.62;101187.63;2080764;28;45633;-56
2022/02/06 06:43:14;;;;;;;;;1.75;1.75;;;;;10.76;61.67;101181.44;2073337;28;47169;-57
2022/02/06 06:44:15;;;;;;;;;4.33;4.00;;;;;10.78;61.97;101181.41;2080391;28;47768;-57
2022/02/06 06:45:15;;;;;;;;;3.00;3.00;;;;;10.77;61.87;101183.19;2080490;28;47038;-58
2022/02/06 06:46:15;;;;;;;;;2.00;2.00;;;;;10.78;61.77;101176.09;2061170;28;47599;-57
2022/02/06 06:47:16;;;;;;;;;1.00;1.00;;;;;10.78;61.97;101184.06;2057179;28;47696;-56
2022/02/06 06:48:16;;;;;;;;;2.00;2.00;;;;;10.79;61.60;101193.78;2086175;28;47309;-55
2022/02/06 06:49:17;;;;;;;;;2.00;2.00;;;;;10.79;61.78;101186.69;2080486;28;47098;-57
2022/02/06 06:50:18;;;;;;;;;2.33;2.33;;;;;10.80;61.81;101195.56;2080631;28;48113;-57
2022/02/06 06:51:18;;;;;;;;;3.67;3.67;;;;;10.81;61.76;101178.72;2080418;28;47769;-57
2022/02/06 06:52:18;;;;;;;;;1.33;1.33;;;;;10.80;61.94;101180.50;2066348;28;47677;-57
2022/02/06 06:53:19;;;;;;;;;1.67;1.67;;;;;10.80;61.78;101191.13;2066685;28;48236;-56
2022/02/06 06:54:22;;;;;;;;;1.67;1.67;;;;;10.80;62.05;101182.28;2080382;28;47051;-58
2022/02/06 06:55:23;;;;;;;;;2.00;2.00;;;;;10.80;62.15;101176.97;2080460;28;47623;-57
2022/02/06 06:56:31;;;;;;;;;2.00;2.00;;;;;10.78;61.77;101178.75;2085625;28;48504;-57